sensor_id;sensor_type;location;lat;lon;timestamp;P1;durP1;ratioP1;P2;durP2;ratioP2
56122;SDS011;42426;46.104;19.656;2023-04-07T00:01:08;30.70;;;20.48;;
56122;SDS011;42426;46.104;19.656;2023-04-07T00:03:34;30.45;;;20.63;;
56122;SDS011;42426;46.104;19.656;2023-04-07T00:06:02;31.15;;;19.98;;
56122;SDS011;42426;46.104;19.656;2023-04-07T00:08:27;34.67;;;20.58;;
56122;SDS011;42426;46.104;19.656;2023-04-07T00:10:53;33.78;;;21.10;;
56122;SDS011;42426;46.104;19.656;2023-04-07T00:13:22;39.58;;;23.58;;
56122;SDS011;42426;46.104;19.656;2023-04-07T00:15:47;33.08;;;20.60;;
56122;SDS011;42426;46.104;19.656;2023-04-07T00:18:13;40.67;;;21.63;;
56122;SDS011;42426;46.104;19.656;2023-04-07T00:20:39;34.28;;;21.05;;
56122;SDS011;42426;46.104;19.656;2023-04-07T00:23:05;37.90;;;24.15;;
56122;SDS011;42426;46.104;19.656;2023-04-07T00:25:30;37.90;;;24.40;;
56122;SDS011;42426;46.104;19.656;2023-04-07T00:27:56;43.70;;;24.65;;
56122;SDS011;42426;46.104;19.656;2023-04-07T00:30:22;37.80;;;22.88;;
56122;SDS011;42426;46.104;19.656;2023-04-07T00:32:48;35.55;;;21.10;;
56122;SDS011;42426;46.104;19.656;2023-04-07T00:35:17;35.35;;;21.40;;
56122;SDS011;42426;46.104;19.656;2023-04-07T00:37:43;31.88;;;21.38;;
56122;SDS011;42426;46.104;19.656;2023-04-07T00:40:09;33.78;;;20.88;;
56122;SDS011;42426;46.104;19.656;2023-04-07T00:42:35;41.63;;;25.38;;
56122;SDS011;42426;46.104;19.656;2023-04-07T00:45:04;38.53;;;24.33;;
56122;SDS011;42426;46.104;19.656;2023-04-07T00:47:30;50.85;;;28.55;;
56122;SDS011;42426;46.104;19.656;2023-04-07T00:49:59;40.42;;;24.88;;
56122;SDS011;42426;46.104;19.656;2023-04-07T00:52:44;42.85;;;25.85;;
56122;SDS011;42426;46.104;19.656;2023-04-07T00:55:10;37.25;;;23.85;;
56122;SDS011;42426;46.104;19.656;2023-04-07T00:57:39;40.33;;;25.90;;
56122;SDS011;42426;46.104;19.656;2023-04-07T01:00:05;37.38;;;22.85;;
56122;SDS011;42426;46.104;19.656;2023-04-07T01:02:40;34.33;;;21.80;;
56122;SDS011;42426;46.104;19.656;2023-04-07T01:05:30;40.00;;;23.92;;
56122;SDS011;42426;46.104;19.656;2023-04-07T01:08:20;40.40;;;25.10;;
56122;SDS011;42426;46.104;19.656;2023-04-07T01:11:10;46.17;;;25.77;;
56122;SDS011;42426;46.104;19.656;2023-04-07T01:13:50;44.60;;;25.92;;
56122;SDS011;42426;46.104;19.656;2023-04-07T01:16:23;45.42;;;23.15;;
56122;SDS011;42426;46.104;19.656;2023-04-07T01:19:03;58.72;;;29.25;;
56122;SDS011;42426;46.104;19.656;2023-04-07T01:21:49;52.30;;;28.45;;
56122;SDS011;42426;46.104;19.656;2023-04-07T01:24:22;48.25;;;27.77;;
56122;SDS011;42426;46.104;19.656;2023-04-07T01:27:17;52.95;;;29.30;;
56122;SDS011;42426;46.104;19.656;2023-04-07T01:29:53;63.80;;;35.25;;
56122;SDS011;42426;46.104;19.656;2023-04-07T01:32:22;62.97;;;32.15;;
56122;SDS011;42426;46.104;19.656;2023-04-07T01:34:51;52.78;;;28.60;;
56122;SDS011;42426;46.104;19.656;2023-04-07T01:37:17;58.72;;;30.17;;
56122;SDS011;42426;46.104;19.656;2023-04-07T01:39:44;52.17;;;30.83;;
56122;SDS011;42426;46.104;19.656;2023-04-07T01:42:10;45.78;;;28.10;;
56122;SDS011;42426;46.104;19.656;2023-04-07T01:44:36;51.78;;;28.50;;
56122;SDS011;42426;46.104;19.656;2023-04-07T01:47:04;59.08;;;30.98;;
56122;SDS011;42426;46.104;19.656;2023-04-07T01:49:30;47.80;;;28.85;;
56122;SDS011;42426;46.104;19.656;2023-04-07T01:51:57;47.85;;;28.25;;
56122;SDS011;42426;46.104;19.656;2023-04-07T01:54:24;58.83;;;30.65;;
56122;SDS011;42426;46.104;19.656;2023-04-07T01:56:51;61.85;;;33.80;;
56122;SDS011;42426;46.104;19.656;2023-04-07T01:59:17;64.70;;;32.80;;
56122;SDS011;42426;46.104;19.656;2023-04-07T02:01:43;56.35;;;32.58;;
56122;SDS011;42426;46.104;19.656;2023-04-07T02:04:20;52.67;;;28.85;;
56122;SDS011;42426;46.104;19.656;2023-04-07T02:06:58;70.30;;;35.33;;
56122;SDS011;42426;46.104;19.656;2023-04-07T02:09:30;67.28;;;35.05;;
56122;SDS011;42426;46.104;19.656;2023-04-07T02:11:59;62.03;;;31.40;;
56122;SDS011;42426;46.104;19.656;2023-04-07T02:14:26;53.22;;;28.42;;
56122;SDS011;42426;46.104;19.656;2023-04-07T02:16:52;61.80;;;33.97;;
56122;SDS011;42426;46.104;19.656;2023-04-07T02:19:21;82.40;;;41.60;;
56122;SDS011;42426;46.104;19.656;2023-04-07T02:21:46;87.88;;;41.78;;
56122;SDS011;42426;46.104;19.656;2023-04-07T02:24:18;74.55;;;39.08;;
56122;SDS011;42426;46.104;19.656;2023-04-07T02:26:45;69.03;;;37.50;;
56122;SDS011;42426;46.104;19.656;2023-04-07T02:29:11;63.72;;;35.17;;
56122;SDS011;42426;46.104;19.656;2023-04-07T02:31:37;57.58;;;32.20;;
56122;SDS011;42426;46.104;19.656;2023-04-07T02:34:04;67.63;;;35.50;;
56122;SDS011;42426;46.104;19.656;2023-04-07T02:36:30;53.53;;;30.33;;
56122;SDS011;42426;46.104;19.656;2023-04-07T02:38:55;55.75;;;31.42;;
56122;SDS011;42426;46.104;19.656;2023-04-07T02:41:22;52.10;;;29.67;;
56122;SDS011;42426;46.104;19.656;2023-04-07T02:43:48;55.53;;;30.13;;
56122;SDS011;42426;46.104;19.656;2023-04-07T02:46:13;46.15;;;28.33;;
56122;SDS011;42426;46.104;19.656;2023-04-07T02:48:39;51.38;;;28.67;;
56122;SDS011;42426;46.104;19.656;2023-04-07T02:51:05;48.03;;;26.15;;
56122;SDS011;42426;46.104;19.656;2023-04-07T02:53:31;39.72;;;25.75;;
56122;SDS011;42426;46.104;19.656;2023-04-07T02:55:56;42.25;;;26.90;;
56122;SDS011;42426;46.104;19.656;2023-04-07T02:58:22;42.45;;;26.42;;
56122;SDS011;42426;46.104;19.656;2023-04-07T03:00:51;44.03;;;27.00;;
56122;SDS011;42426;46.104;19.656;2023-04-07T03:03:17;49.35;;;27.88;;
56122;SDS011;42426;46.104;19.656;2023-04-07T03:05:42;43.88;;;25.85;;
56122;SDS011;42426;46.104;19.656;2023-04-07T03:08:08;44.10;;;25.20;;
56122;SDS011;42426;46.104;19.656;2023-04-07T03:10:34;45.28;;;28.08;;
56122;SDS011;42426;46.104;19.656;2023-04-07T03:13:00;42.55;;;24.95;;
56122;SDS011;42426;46.104;19.656;2023-04-07T03:15:26;46.13;;;26.33;;
56122;SDS011;42426;46.104;19.656;2023-04-07T03:17:51;47.78;;;24.63;;
56122;SDS011;42426;46.104;19.656;2023-04-07T03:20:17;48.90;;;26.17;;
56122;SDS011;42426;46.104;19.656;2023-04-07T03:22:42;43.58;;;24.52;;
56122;SDS011;42426;46.104;19.656;2023-04-07T03:25:08;45.67;;;25.70;;
56122;SDS011;42426;46.104;19.656;2023-04-07T03:27:36;50.38;;;27.23;;
56122;SDS011;42426;46.104;19.656;2023-04-07T03:30:01;48.05;;;26.33;;
56122;SDS011;42426;46.104;19.656;2023-04-07T03:32:28;44.90;;;24.83;;
56122;SDS011;42426;46.104;19.656;2023-04-07T03:34:53;43.25;;;26.45;;
56122;SDS011;42426;46.104;19.656;2023-04-07T03:37:19;41.88;;;25.60;;
56122;SDS011;42426;46.104;19.656;2023-04-07T03:40:03;48.30;;;26.88;;
56122;SDS011;42426;46.104;19.656;2023-04-07T03:42:31;45.10;;;27.70;;
56122;SDS011;42426;46.104;19.656;2023-04-07T03:44:56;43.95;;;26.38;;
56122;SDS011;42426;46.104;19.656;2023-04-07T03:47:22;47.40;;;26.95;;
56122;SDS011;42426;46.104;19.656;2023-04-07T03:49:48;43.85;;;26.17;;
56122;SDS011;42426;46.104;19.656;2023-04-07T03:52:13;47.67;;;28.65;;
56122;SDS011;42426;46.104;19.656;2023-04-07T03:54:39;45.83;;;26.60;;
56122;SDS011;42426;46.104;19.656;2023-04-07T03:57:05;49.25;;;27.48;;
56122;SDS011;42426;46.104;19.656;2023-04-07T03:59:31;49.40;;;27.00;;
56122;SDS011;42426;46.104;19.656;2023-04-07T04:01:57;52.10;;;29.20;;
56122;SDS011;42426;46.104;19.656;2023-04-07T04:04:22;47.53;;;27.58;;
56122;SDS011;42426;46.104;19.656;2023-04-07T04:06:49;47.72;;;27.42;;
56122;SDS011;42426;46.104;19.656;2023-04-07T04:09:15;48.45;;;28.00;;
56122;SDS011;42426;46.104;19.656;2023-04-07T04:11:41;47.55;;;29.02;;
56122;SDS011;42426;46.104;19.656;2023-04-07T04:14:07;55.05;;;30.60;;
56122;SDS011;42426;46.104;19.656;2023-04-07T04:16:32;51.00;;;29.83;;
56122;SDS011;42426;46.104;19.656;2023-04-07T04:18:59;52.08;;;28.73;;
56122;SDS011;42426;46.104;19.656;2023-04-07T04:21:25;48.00;;;27.13;;
56122;SDS011;42426;46.104;19.656;2023-04-07T04:23:51;47.40;;;27.48;;
56122;SDS011;42426;46.104;19.656;2023-04-07T04:26:17;49.45;;;29.80;;
56122;SDS011;42426;46.104;19.656;2023-04-07T04:28:44;57.60;;;29.48;;
56122;SDS011;42426;46.104;19.656;2023-04-07T04:31:10;52.47;;;30.45;;
56122;SDS011;42426;46.104;19.656;2023-04-07T04:33:35;51.95;;;29.63;;
56122;SDS011;42426;46.104;19.656;2023-04-07T04:36:01;54.38;;;30.75;;
56122;SDS011;42426;46.104;19.656;2023-04-07T04:38:28;50.35;;;28.45;;
56122;SDS011;42426;46.104;19.656;2023-04-07T04:40:53;55.20;;;31.35;;
56122;SDS011;42426;46.104;19.656;2023-04-07T04:43:19;50.67;;;29.17;;
56122;SDS011;42426;46.104;19.656;2023-04-07T04:45:47;51.05;;;29.77;;
56122;SDS011;42426;46.104;19.656;2023-04-07T04:48:13;54.30;;;30.58;;
56122;SDS011;42426;46.104;19.656;2023-04-07T04:50:39;46.78;;;28.65;;
56122;SDS011;42426;46.104;19.656;2023-04-07T04:53:06;59.88;;;32.50;;
56122;SDS011;42426;46.104;19.656;2023-04-07T04:55:32;49.78;;;29.77;;
56122;SDS011;42426;46.104;19.656;2023-04-07T04:57:58;47.08;;;27.08;;
56122;SDS011;42426;46.104;19.656;2023-04-07T05:00:24;56.13;;;28.70;;
56122;SDS011;42426;46.104;19.656;2023-04-07T05:02:50;48.28;;;27.10;;
56122;SDS011;42426;46.104;19.656;2023-04-07T05:05:16;59.08;;;32.28;;
56122;SDS011;42426;46.104;19.656;2023-04-07T05:07:43;47.63;;;27.90;;
56122;SDS011;42426;46.104;19.656;2023-04-07T05:10:09;48.40;;;27.67;;
56122;SDS011;42426;46.104;19.656;2023-04-07T05:12:36;49.70;;;28.60;;
56122;SDS011;42426;46.104;19.656;2023-04-07T05:15:02;48.67;;;27.15;;
56122;SDS011;42426;46.104;19.656;2023-04-07T05:17:28;82.82;;;37.55;;
56122;SDS011;42426;46.104;19.656;2023-04-07T05:19:55;62.85;;;32.33;;
56122;SDS011;42426;46.104;19.656;2023-04-07T05:22:20;60.80;;;31.38;;
56122;SDS011;42426;46.104;19.656;2023-04-07T05:24:48;65.63;;;31.98;;
56122;SDS011;42426;46.104;19.656;2023-04-07T05:27:14;54.67;;;31.67;;
56122;SDS011;42426;46.104;19.656;2023-04-07T05:29:40;58.42;;;30.95;;
56122;SDS011;42426;46.104;19.656;2023-04-07T05:32:05;56.35;;;33.22;;
56122;SDS011;42426;46.104;19.656;2023-04-07T05:34:31;56.85;;;34.08;;
56122;SDS011;42426;46.104;19.656;2023-04-07T05:36:56;54.05;;;29.60;;
56122;SDS011;42426;46.104;19.656;2023-04-07T05:39:22;56.50;;;30.10;;
56122;SDS011;42426;46.104;19.656;2023-04-07T05:41:48;55.95;;;35.38;;
56122;SDS011;42426;46.104;19.656;2023-04-07T05:44:14;59.17;;;39.58;;
56122;SDS011;42426;46.104;19.656;2023-04-07T05:46:41;54.58;;;32.63;;
56122;SDS011;42426;46.104;19.656;2023-04-07T05:49:06;45.03;;;27.00;;
56122;SDS011;42426;46.104;19.656;2023-04-07T05:51:32;46.63;;;27.65;;
56122;SDS011;42426;46.104;19.656;2023-04-07T05:54:00;46.90;;;27.45;;
56122;SDS011;42426;46.104;19.656;2023-04-07T05:56:27;39.60;;;24.73;;
56122;SDS011;42426;46.104;19.656;2023-04-07T05:58:53;39.92;;;23.70;;
56122;SDS011;42426;46.104;19.656;2023-04-07T06:01:19;43.88;;;24.45;;
56122;SDS011;42426;46.104;19.656;2023-04-07T06:03:45;40.50;;;23.58;;
56122;SDS011;42426;46.104;19.656;2023-04-07T06:06:10;45.58;;;24.08;;
56122;SDS011;42426;46.104;19.656;2023-04-07T06:08:36;41.45;;;25.33;;
56122;SDS011;42426;46.104;19.656;2023-04-07T06:11:02;46.03;;;29.92;;
56122;SDS011;42426;46.104;19.656;2023-04-07T06:13:28;47.67;;;27.05;;
56122;SDS011;42426;46.104;19.656;2023-04-07T06:15:54;43.93;;;25.67;;
56122;SDS011;42426;46.104;19.656;2023-04-07T06:18:25;40.60;;;23.88;;
56122;SDS011;42426;46.104;19.656;2023-04-07T06:20:51;42.95;;;25.38;;
56122;SDS011;42426;46.104;19.656;2023-04-07T06:23:16;41.53;;;24.33;;
56122;SDS011;42426;46.104;19.656;2023-04-07T06:25:42;46.35;;;26.27;;
56122;SDS011;42426;46.104;19.656;2023-04-07T06:28:09;39.85;;;23.73;;
56122;SDS011;42426;46.104;19.656;2023-04-07T06:30:35;42.63;;;25.67;;
56122;SDS011;42426;46.104;19.656;2023-04-07T06:33:01;44.17;;;24.95;;
56122;SDS011;42426;46.104;19.656;2023-04-07T06:35:26;42.88;;;23.83;;
56122;SDS011;42426;46.104;19.656;2023-04-07T06:37:52;35.30;;;20.83;;
56122;SDS011;42426;46.104;19.656;2023-04-07T06:40:18;40.78;;;23.45;;
56122;SDS011;42426;46.104;19.656;2023-04-07T06:42:46;40.10;;;23.02;;
56122;SDS011;42426;46.104;19.656;2023-04-07T06:45:15;40.63;;;22.83;;
56122;SDS011;42426;46.104;19.656;2023-04-07T06:47:44;39.85;;;25.85;;
56122;SDS011;42426;46.104;19.656;2023-04-07T06:50:10;42.92;;;24.60;;
56122;SDS011;42426;46.104;19.656;2023-04-07T06:52:45;43.40;;;26.55;;
56122;SDS011;42426;46.104;19.656;2023-04-07T06:55:11;43.25;;;25.92;;
56122;SDS011;42426;46.104;19.656;2023-04-07T06:57:36;40.25;;;23.55;;
56122;SDS011;42426;46.104;19.656;2023-04-07T07:00:03;40.25;;;23.58;;
56122;SDS011;42426;46.104;19.656;2023-04-07T07:02:31;39.72;;;24.65;;
56122;SDS011;42426;46.104;19.656;2023-04-07T07:04:58;44.15;;;26.40;;
56122;SDS011;42426;46.104;19.656;2023-04-07T07:07:25;47.13;;;27.85;;
56122;SDS011;42426;46.104;19.656;2023-04-07T07:09:51;41.53;;;25.17;;
56122;SDS011;42426;46.104;19.656;2023-04-07T07:12:18;56.15;;;32.25;;
56122;SDS011;42426;46.104;19.656;2023-04-07T07:14:43;48.05;;;28.70;;
56122;SDS011;42426;46.104;19.656;2023-04-07T07:17:10;50.55;;;30.40;;
56122;SDS011;42426;46.104;19.656;2023-04-07T07:19:36;40.92;;;24.70;;
56122;SDS011;42426;46.104;19.656;2023-04-07T07:22:02;43.75;;;26.85;;
56122;SDS011;42426;46.104;19.656;2023-04-07T07:24:28;44.50;;;27.65;;
56122;SDS011;42426;46.104;19.656;2023-04-07T07:26:54;45.63;;;29.58;;
56122;SDS011;42426;46.104;19.656;2023-04-07T07:29:21;51.50;;;29.23;;
56122;SDS011;42426;46.104;19.656;2023-04-07T07:31:47;39.35;;;27.20;;
56122;SDS011;42426;46.104;19.656;2023-04-07T07:34:12;56.55;;;33.42;;
56122;SDS011;42426;46.104;19.656;2023-04-07T07:36:38;44.30;;;29.23;;
56122;SDS011;42426;46.104;19.656;2023-04-07T07:39:05;43.45;;;29.67;;
56122;SDS011;42426;46.104;19.656;2023-04-07T07:41:32;55.70;;;34.33;;
56122;SDS011;42426;46.104;19.656;2023-04-07T07:43:58;50.38;;;28.85;;
56122;SDS011;42426;46.104;19.656;2023-04-07T07:46:24;46.10;;;27.60;;
56122;SDS011;42426;46.104;19.656;2023-04-07T07:48:51;41.85;;;26.60;;
56122;SDS011;42426;46.104;19.656;2023-04-07T07:51:17;46.05;;;25.83;;
56122;SDS011;42426;46.104;19.656;2023-04-07T07:53:43;42.45;;;26.85;;
56122;SDS011;42426;46.104;19.656;2023-04-07T07:56:11;42.10;;;26.75;;
56122;SDS011;42426;46.104;19.656;2023-04-07T07:58:39;44.60;;;27.23;;
56122;SDS011;42426;46.104;19.656;2023-04-07T08:01:24;40.22;;;24.25;;
56122;SDS011;42426;46.104;19.656;2023-04-07T08:03:59;39.60;;;24.98;;
56122;SDS011;42426;46.104;19.656;2023-04-07T08:06:40;49.15;;;27.35;;
56122;SDS011;42426;46.104;19.656;2023-04-07T08:12:31;42.50;;;27.27;;
56122;SDS011;42426;46.104;19.656;2023-04-07T08:18:21;45.03;;;28.15;;
56122;SDS011;42426;46.104;19.656;2023-04-07T08:24:12;48.97;;;32.05;;
56122;SDS011;42426;46.104;19.656;2023-04-07T08:30:02;54.50;;;32.13;;
56122;SDS011;42426;46.104;19.656;2023-04-07T08:35:23;54.95;;;32.08;;
56122;SDS011;42426;46.104;19.656;2023-04-07T08:37:48;56.13;;;35.20;;
56122;SDS011;42426;46.104;19.656;2023-04-07T08:40:16;65.90;;;40.00;;
56122;SDS011;42426;46.104;19.656;2023-04-07T08:42:44;64.40;;;36.63;;
56122;SDS011;42426;46.104;19.656;2023-04-07T08:45:34;59.80;;;35.58;;
56122;SDS011;42426;46.104;19.656;2023-04-07T08:48:06;57.53;;;34.28;;
56122;SDS011;42426;46.104;19.656;2023-04-07T08:50:42;61.50;;;36.45;;
56122;SDS011;42426;46.104;19.656;2023-04-07T08:53:11;56.63;;;33.88;;
56122;SDS011;42426;46.104;19.656;2023-04-07T08:55:40;54.10;;;32.65;;
56122;SDS011;42426;46.104;19.656;2023-04-07T08:58:08;48.60;;;32.42;;
56122;SDS011;42426;46.104;19.656;2023-04-07T09:00:37;53.08;;;34.20;;
56122;SDS011;42426;46.104;19.656;2023-04-07T09:03:07;59.40;;;35.17;;
56122;SDS011;42426;46.104;19.656;2023-04-07T09:05:33;58.22;;;35.90;;
56122;SDS011;42426;46.104;19.656;2023-04-07T09:08:01;59.33;;;35.38;;
56122;SDS011;42426;46.104;19.656;2023-04-07T09:10:27;58.33;;;35.33;;
56122;SDS011;42426;46.104;19.656;2023-04-07T09:12:58;52.95;;;34.22;;
56122;SDS011;42426;46.104;19.656;2023-04-07T09:15:24;64.38;;;36.95;;
56122;SDS011;42426;46.104;19.656;2023-04-07T09:17:55;56.45;;;35.65;;
56122;SDS011;42426;46.104;19.656;2023-04-07T09:20:21;59.95;;;35.22;;
56122;SDS011;42426;46.104;19.656;2023-04-07T09:22:47;55.97;;;34.13;;
56122;SDS011;42426;46.104;19.656;2023-04-07T09:25:21;51.47;;;32.88;;
56122;SDS011;42426;46.104;19.656;2023-04-07T09:28:00;48.25;;;30.52;;
56122;SDS011;42426;46.104;19.656;2023-04-07T09:30:27;67.18;;;40.05;;
56122;SDS011;42426;46.104;19.656;2023-04-07T09:32:56;68.13;;;41.55;;
56122;SDS011;42426;46.104;19.656;2023-04-07T09:35:22;77.47;;;45.13;;
56122;SDS011;42426;46.104;19.656;2023-04-07T09:38:05;137.40;;;80.22;;
56122;SDS011;42426;46.104;19.656;2023-04-07T09:40:32;101.57;;;56.50;;
56122;SDS011;42426;46.104;19.656;2023-04-07T09:43:00;109.05;;;60.28;;
56122;SDS011;42426;46.104;19.656;2023-04-07T09:45:28;87.00;;;49.47;;
56122;SDS011;42426;46.104;19.656;2023-04-07T09:47:56;63.35;;;40.97;;
56122;SDS011;42426;46.104;19.656;2023-04-07T09:50:37;57.20;;;36.45;;
56122;SDS011;42426;46.104;19.656;2023-04-07T09:53:05;56.63;;;35.45;;
56122;SDS011;42426;46.104;19.656;2023-04-07T09:55:33;48.65;;;31.55;;
56122;SDS011;42426;46.104;19.656;2023-04-07T09:58:01;52.95;;;31.98;;
56122;SDS011;42426;46.104;19.656;2023-04-07T10:00:28;54.45;;;31.42;;
56122;SDS011;42426;46.104;19.656;2023-04-07T10:02:55;57.00;;;34.90;;
56122;SDS011;42426;46.104;19.656;2023-04-07T10:05:24;51.97;;;32.50;;
56122;SDS011;42426;46.104;19.656;2023-04-07T10:07:50;52.20;;;31.38;;
56122;SDS011;42426;46.104;19.656;2023-04-07T10:10:16;50.75;;;33.90;;
56122;SDS011;42426;46.104;19.656;2023-04-07T10:12:42;47.60;;;31.08;;
56122;SDS011;42426;46.104;19.656;2023-04-07T10:15:11;49.78;;;31.35;;
56122;SDS011;42426;46.104;19.656;2023-04-07T10:17:45;52.75;;;33.20;;
56122;SDS011;42426;46.104;19.656;2023-04-07T10:20:16;59.88;;;35.20;;
56122;SDS011;42426;46.104;19.656;2023-04-07T10:22:45;55.72;;;32.53;;
56122;SDS011;42426;46.104;19.656;2023-04-07T10:25:12;58.67;;;35.33;;
56122;SDS011;42426;46.104;19.656;2023-04-07T10:27:42;58.53;;;37.65;;
56122;SDS011;42426;46.104;19.656;2023-04-07T10:30:23;56.45;;;34.10;;
56122;SDS011;42426;46.104;19.656;2023-04-07T10:32:51;53.15;;;34.10;;
56122;SDS011;42426;46.104;19.656;2023-04-07T10:35:17;51.75;;;32.05;;
56122;SDS011;42426;46.104;19.656;2023-04-07T10:40:32;44.70;;;28.33;;
56122;SDS011;42426;46.104;19.656;2023-04-07T10:42:58;43.08;;;28.55;;
56122;SDS011;42426;46.104;19.656;2023-04-07T10:46:10;48.17;;;31.42;;
56122;SDS011;42426;46.104;19.656;2023-04-07T10:48:12;42.70;;;27.83;;
56122;SDS011;42426;46.104;19.656;2023-04-07T10:50:43;48.33;;;29.50;;
56122;SDS011;42426;46.104;19.656;2023-04-07T10:53:12;41.08;;;27.15;;
56122;SDS011;42426;46.104;19.656;2023-04-07T10:58:25;43.22;;;27.25;;
56122;SDS011;42426;46.104;19.656;2023-04-07T11:03:23;47.38;;;29.50;;
56122;SDS011;42426;46.104;19.656;2023-04-07T11:05:50;44.90;;;27.38;;
56122;SDS011;42426;46.104;19.656;2023-04-07T11:11:13;39.03;;;26.02;;
56122;SDS011;42426;46.104;19.656;2023-04-07T11:13:49;43.10;;;28.33;;
56122;SDS011;42426;46.104;19.656;2023-04-07T11:16:18;52.05;;;32.30;;
56122;SDS011;42426;46.104;19.656;2023-04-07T11:19:03;40.55;;;25.80;;
56122;SDS011;42426;46.104;19.656;2023-04-07T11:21:30;37.97;;;26.13;;
56122;SDS011;42426;46.104;19.656;2023-04-07T11:23:56;39.58;;;25.83;;
56122;SDS011;42426;46.104;19.656;2023-04-07T11:26:21;38.20;;;25.05;;
56122;SDS011;42426;46.104;19.656;2023-04-07T11:28:48;39.05;;;26.75;;
56122;SDS011;42426;46.104;19.656;2023-04-07T11:31:28;41.00;;;26.73;;
56122;SDS011;42426;46.104;19.656;2023-04-07T11:34:01;44.67;;;29.38;;
56122;SDS011;42426;46.104;19.656;2023-04-07T11:36:34;39.88;;;25.38;;
56122;SDS011;42426;46.104;19.656;2023-04-07T11:39:04;40.63;;;25.38;;
56122;SDS011;42426;46.104;19.656;2023-04-07T11:41:30;33.63;;;22.05;;
56122;SDS011;42426;46.104;19.656;2023-04-07T11:44:10;31.45;;;22.45;;
56122;SDS011;42426;46.104;19.656;2023-04-07T11:46:51;33.72;;;22.77;;
56122;SDS011;42426;46.104;19.656;2023-04-07T11:49:21;32.60;;;22.13;;
56122;SDS011;42426;46.104;19.656;2023-04-07T11:51:48;30.55;;;21.83;;
56122;SDS011;42426;46.104;19.656;2023-04-07T11:54:25;29.67;;;21.50;;
56122;SDS011;42426;46.104;19.656;2023-04-07T11:56:52;30.33;;;20.98;;
56122;SDS011;42426;46.104;19.656;2023-04-07T11:59:21;31.35;;;21.50;;
56122;SDS011;42426;46.104;19.656;2023-04-07T12:01:48;34.30;;;22.63;;
56122;SDS011;42426;46.104;19.656;2023-04-07T12:04:15;30.92;;;21.10;;
56122;SDS011;42426;46.104;19.656;2023-04-07T12:06:42;30.58;;;20.63;;
56122;SDS011;42426;46.104;19.656;2023-04-07T12:09:24;35.20;;;22.33;;
56122;SDS011;42426;46.104;19.656;2023-04-07T12:11:51;30.98;;;22.50;;
56122;SDS011;42426;46.104;19.656;2023-04-07T12:14:16;34.58;;;21.95;;
56122;SDS011;42426;46.104;19.656;2023-04-07T12:16:42;35.90;;;24.48;;
56122;SDS011;42426;46.104;19.656;2023-04-07T12:19:09;35.75;;;21.27;;
56122;SDS011;42426;46.104;19.656;2023-04-07T12:21:35;32.88;;;22.80;;
56122;SDS011;42426;46.104;19.656;2023-04-07T12:24:00;35.80;;;23.85;;
56122;SDS011;42426;46.104;19.656;2023-04-07T12:26:26;35.83;;;21.90;;
56122;SDS011;42426;46.104;19.656;2023-04-07T12:28:56;30.08;;;20.35;;
56122;SDS011;42426;46.104;19.656;2023-04-07T12:31:28;34.47;;;22.10;;
56122;SDS011;42426;46.104;19.656;2023-04-07T12:33:58;36.75;;;24.33;;
56122;SDS011;42426;46.104;19.656;2023-04-07T12:36:24;37.60;;;25.40;;
56122;SDS011;42426;46.104;19.656;2023-04-07T12:38:52;37.42;;;23.67;;
56122;SDS011;42426;46.104;19.656;2023-04-07T12:41:19;33.58;;;21.17;;
56122;SDS011;42426;46.104;19.656;2023-04-07T12:43:44;40.97;;;25.80;;
56122;SDS011;42426;46.104;19.656;2023-04-07T12:46:11;38.80;;;25.67;;
56122;SDS011;42426;46.104;19.656;2023-04-07T12:48:36;41.17;;;26.42;;
56122;SDS011;42426;46.104;19.656;2023-04-07T12:51:02;44.95;;;27.58;;
56122;SDS011;42426;46.104;19.656;2023-04-07T12:53:28;42.63;;;26.15;;
56122;SDS011;42426;46.104;19.656;2023-04-07T12:55:55;44.50;;;27.65;;
56122;SDS011;42426;46.104;19.656;2023-04-07T12:58:21;48.47;;;29.25;;
56122;SDS011;42426;46.104;19.656;2023-04-07T13:00:48;46.45;;;28.98;;
56122;SDS011;42426;46.104;19.656;2023-04-07T13:03:14;45.92;;;27.27;;
56122;SDS011;42426;46.104;19.656;2023-04-07T13:05:40;42.88;;;27.10;;
56122;SDS011;42426;46.104;19.656;2023-04-07T13:08:06;47.63;;;27.98;;
56122;SDS011;42426;46.104;19.656;2023-04-07T13:10:34;46.70;;;26.92;;
56122;SDS011;42426;46.104;19.656;2023-04-07T13:13:01;44.30;;;24.65;;
56122;SDS011;42426;46.104;19.656;2023-04-07T13:15:48;39.63;;;23.52;;
56122;SDS011;42426;46.104;19.656;2023-04-07T13:18:18;39.20;;;24.67;;
56122;SDS011;42426;46.104;19.656;2023-04-07T13:20:45;42.33;;;26.80;;
56122;SDS011;42426;46.104;19.656;2023-04-07T13:23:11;50.70;;;30.77;;
56122;SDS011;42426;46.104;19.656;2023-04-07T13:25:37;44.28;;;27.45;;
56122;SDS011;42426;46.104;19.656;2023-04-07T13:28:06;63.75;;;35.42;;
56122;SDS011;42426;46.104;19.656;2023-04-07T13:30:36;50.63;;;32.20;;
56122;SDS011;42426;46.104;19.656;2023-04-07T13:33:08;46.60;;;27.88;;
56122;SDS011;42426;46.104;19.656;2023-04-07T13:35:34;46.20;;;29.77;;
56122;SDS011;42426;46.104;19.656;2023-04-07T13:38:02;42.83;;;26.95;;
56122;SDS011;42426;46.104;19.656;2023-04-07T13:40:32;38.10;;;23.70;;
56122;SDS011;42426;46.104;19.656;2023-04-07T13:43:01;40.67;;;26.30;;
56122;SDS011;42426;46.104;19.656;2023-04-07T13:45:34;47.22;;;28.88;;
56122;SDS011;42426;46.104;19.656;2023-04-07T13:48:02;37.28;;;24.42;;
56122;SDS011;42426;46.104;19.656;2023-04-07T13:50:29;38.35;;;25.67;;
56122;SDS011;42426;46.104;19.656;2023-04-07T13:52:56;37.10;;;23.13;;
56122;SDS011;42426;46.104;19.656;2023-04-07T13:55:22;39.05;;;24.23;;
56122;SDS011;42426;46.104;19.656;2023-04-07T13:57:50;38.47;;;24.92;;
56122;SDS011;42426;46.104;19.656;2023-04-07T14:00:19;41.97;;;27.17;;
56122;SDS011;42426;46.104;19.656;2023-04-07T14:02:56;39.53;;;25.08;;
56122;SDS011;42426;46.104;19.656;2023-04-07T14:05:22;39.45;;;24.30;;
56122;SDS011;42426;46.104;19.656;2023-04-07T14:07:51;40.17;;;25.77;;
56122;SDS011;42426;46.104;19.656;2023-04-07T14:10:18;42.45;;;27.23;;
56122;SDS011;42426;46.104;19.656;2023-04-07T14:12:44;36.15;;;22.05;;
56122;SDS011;42426;46.104;19.656;2023-04-07T14:15:10;35.72;;;23.88;;
56122;SDS011;42426;46.104;19.656;2023-04-07T14:17:49;36.30;;;23.90;;
56122;SDS011;42426;46.104;19.656;2023-04-07T14:20:22;34.03;;;23.05;;
56122;SDS011;42426;46.104;19.656;2023-04-07T14:22:49;39.05;;;23.85;;
56122;SDS011;42426;46.104;19.656;2023-04-07T14:25:20;33.58;;;22.63;;
56122;SDS011;42426;46.104;19.656;2023-04-07T14:30:24;40.85;;;27.38;;
56122;SDS011;42426;46.104;19.656;2023-04-07T14:32:50;34.28;;;22.90;;
56122;SDS011;42426;46.104;19.656;2023-04-07T14:35:20;62.05;;;33.42;;
56122;SDS011;42426;46.104;19.656;2023-04-07T14:37:46;39.13;;;23.08;;
56122;SDS011;42426;46.104;19.656;2023-04-07T14:40:12;29.77;;;20.92;;
56122;SDS011;42426;46.104;19.656;2023-04-07T14:42:38;35.33;;;21.58;;
56122;SDS011;42426;46.104;19.656;2023-04-07T14:45:05;36.10;;;21.50;;